Terminal Aerodrome Forecast
Issued by NWS

Home | Current Version | Previous Version | Text Only | Print | Product List | Glossary On
Versions: 1 2 3 4 5 6 7 8 9 10 11 12 13 14 15 16 17 18 19 20 21 22 23 24 25 26 27 28 29
000
FTUS45 KCYS 242325
TAFAIA
TAF
KAIA 242325Z 2500/2524 35015KT 6SM -SHRA VCTS SCT060CB BKN100
     FM250200 34005KT P6SM FEW020 BKN150
      TEMPO 2510/2514 4SM BR BKN015
     FM251900 09012KT P6SM VCTS SCT050CB BKN150=

USA.gov is the U.S. government's official web portal to all federal, state and local government web resources and services.